Time;durP1;ratioP1;P1;durP2;ratioP2;P2;SDS_P1;SDS_P2;PMS_P1;PMS_P2;Temp;Humidity;BMP_temperature;BMP_pressure;BME280_temperature;BME280_humidity;BME280_pressure;Samples;Min_cycle;Max_cycle;Signal;HPM_P1;HPM_P2
2022/04/15 00:00:07;;;;;;;0.60;0.60;;;13.60;70.60;13.00;98829.00;;;;5118526;28;20221;-76
2022/04/15 00:02:34;;;;;;;1.60;1.17;;;13.60;70.60;13.00;98829.00;;;;5116847;28;20641;-77
2022/04/15 00:05:00;;;;;;;0.80;0.80;;;13.60;70.00;13.00;98832.00;;;;5117177;28;20206;-76
2022/04/15 00:07:27;;;;;;;0.80;0.80;;;13.60;70.10;13.00;98834.00;;;;5116565;28;20274;-77
2022/04/15 00:09:54;;;;;;;0.50;0.50;;;13.60;70.50;13.10;98829.00;;;;5115806;28;20573;-77
2022/04/15 00:12:28;;;;;;;0.60;0.60;;;13.60;70.60;13.00;98833.00;;;;5115710;28;20197;-76
2022/04/15 00:14:56;;;;;;;2.40;1.40;;;13.60;70.60;12.90;98831.00;;;;5115512;28;20206;-77
2022/04/15 00:17:22;;;;;;;0.70;0.70;;;13.50;70.70;12.90;98830.00;;;;5115472;28;20190;-77
2022/04/15 00:19:49;;;;;;;1.70;1.37;;;13.50;71.30;12.90;98831.00;;;;5115470;28;20222;-77
2022/04/15 00:22:16;;;;;;;0.60;0.60;;;13.40;70.60;12.90;98841.00;;;;5115377;28;20221;-77
2022/04/15 00:24:43;;;;;;;0.73;0.73;;;13.40;70.70;12.80;98834.00;;;;5115459;28;20190;-78
2022/04/15 00:27:10;;;;;;;0.60;0.60;;;13.50;71.40;12.80;98837.00;;;;5115230;28;20236;-77
2022/04/15 00:29:37;;;;;;;0.87;0.87;;;13.40;71.70;12.80;98832.00;;;;5115344;28;20282;-79
2022/04/15 00:32:04;;;;;;;0.53;0.53;;;13.40;71.40;12.80;98832.00;;;;5115285;28;20818;-77
2022/04/15 00:34:31;;;;;;;1.00;1.00;;;13.40;71.30;12.80;98832.00;;;;5114148;28;20232;-78
2022/04/15 00:36:58;;;;;;;0.50;0.50;;;;;12.70;98831.00;;;;5115194;28;20198;-77
2022/04/15 00:39:27;;;;;;;0.60;0.60;;;13.30;71.00;12.70;98832.00;;;;5115084;28;20202;-76
2022/04/15 00:41:56;;;;;;;0.60;0.60;;;13.30;71.50;12.60;98823.00;;;;5115333;28;20275;-77
2022/04/15 00:44:24;;;;;;;1.93;1.83;;;13.20;71.20;12.60;98828.00;;;;5097147;28;20289;-77
2022/04/15 00:46:50;;;;;;;1.30;1.30;;;13.10;72.90;12.70;98835.00;;;;5115360;28;20664;-79
2022/04/15 00:49:17;;;;;;;2.13;1.83;;;13.20;73.10;12.60;98833.00;;;;5115056;28;20213;-78
2022/04/15 00:51:45;;;;;;;4.17;1.50;;;13.10;72.50;12.50;98827.00;;;;5114816;28;20222;-77
2022/04/15 00:54:12;;;;;;;0.80;0.80;;;13.10;72.40;12.50;98838.00;;;;5114927;28;20645;-77
2022/04/15 00:56:42;;;;;;;0.80;0.80;;;13.10;73.00;12.50;98829.00;;;;5114739;28;20675;-78
2022/04/15 00:59:10;;;;;;;3.77;1.53;;;13.00;73.10;12.40;98825.00;;;;5114921;28;20277;-78
2022/04/15 01:01:43;;;;;;;0.70;0.70;;;13.00;73.00;12.30;98830.00;;;;5096760;28;20202;-77
2022/04/15 01:04:11;;;;;;;0.80;0.80;;;13.00;73.20;12.30;98832.00;;;;5096875;28;20271;-77
2022/04/15 01:06:39;;;;;;;0.87;0.87;;;12.90;74.00;12.20;98831.00;;;;5114582;28;20226;-77
2022/04/15 01:09:07;;;;;;;0.60;0.60;;;12.80;74.20;12.30;98828.00;;;;5096670;28;20213;-78
2022/04/15 01:11:35;;;;;;;0.60;0.60;;;12.80;74.70;12.20;98829.00;;;;5113836;28;20476;-78
2022/04/15 01:14:03;;;;;;;1.17;1.17;;;12.80;74.60;12.20;98833.00;;;;5114383;28;20218;-78
2022/04/15 01:16:33;;;;;;;1.07;1.07;;;12.80;74.70;12.10;98826.00;;;;5096694;28;20209;-78
2022/04/15 01:19:00;;;;;;;2.13;1.17;;;12.70;75.60;12.10;98827.00;;;;5114511;28;20194;-77
2022/04/15 01:21:32;;;;;;;0.93;0.93;;;12.70;75.00;12.10;98833.00;;;;5096533;28;20301;-77
2022/04/15 01:24:01;;;;;;;0.70;0.70;;;12.70;75.00;12.10;98828.00;;;;5114489;28;20624;-77
2022/04/15 01:26:28;;;;;;;1.93;1.83;;;12.70;75.30;12.20;98839.00;;;;5096523;28;20230;-77
2022/04/15 01:28:57;;;;;;;0.70;0.70;;;12.70;75.60;12.20;98827.00;;;;5114342;28;20306;-77
2022/04/15 01:31:29;;;;;;;4.20;1.93;;;12.70;75.40;12.20;98841.00;;;;5114255;28;20206;-77
2022/04/15 01:33:55;;;;;;;0.80;0.80;;;12.70;76.00;12.10;98842.00;;;;5114310;28;20229;-77
2022/04/15 01:36:22;;;;;;;1.10;1.10;;;12.70;75.80;12.10;98833.00;;;;5114304;28;20224;-78
2022/04/15 01:38:48;;;;;;;0.70;0.70;;;12.70;76.00;12.10;98843.00;;;;5096277;28;20206;-77
2022/04/15 01:41:16;;;;;;;1.17;1.17;;;12.60;76.60;12.10;98841.00;;;;5114528;28;20616;-77
2022/04/15 01:43:42;;;;;;;1.63;1.53;;;12.60;77.40;12.10;98843.00;;;;5114290;28;20284;-77
2022/04/15 01:46:09;;;;;;;0.97;0.97;;;12.60;77.10;12.10;98847.00;;;;5096087;28;20224;-77
2022/04/15 01:48:35;;;;;;;4.57;1.23;;;12.60;77.10;12.10;98850.00;;;;5114014;28;20236;-75
2022/04/15 01:51:02;;;;;;;0.70;0.70;;;12.70;77.20;12.00;98844.00;;;;5114005;28;20196;-77
2022/04/15 01:53:28;;;;;;;1.33;1.23;;;12.60;77.10;11.90;98833.00;;;;5113894;28;20308;-78
2022/04/15 01:55:55;;;;;;;0.90;0.90;;;12.50;77.50;11.90;98846.00;;;;5114047;28;20285;-77
2022/04/15 01:58:22;;;;;;;1.13;1.07;;;12.50;78.20;12.00;98840.00;;;;5095991;28;20626;-77
2022/04/15 02:00:49;;;;;;;1.00;1.00;;;12.50;80.10;12.00;98838.00;;;;5095993;28;20305;-77
2022/04/15 02:03:16;;;;;;;1.33;1.33;;;12.60;79.50;12.00;98822.00;;;;5096333;28;20245;-78
2022/04/15 02:05:42;;;;;;;1.00;1.00;;;12.60;79.10;12.00;98847.00;;;;5113892;28;20280;-76
2022/04/15 02:08:09;;;;;;;1.00;1.00;;;12.60;80.00;12.10;98845.00;;;;5096043;28;20225;-78
2022/04/15 02:10:38;;;;;;;0.60;0.60;;;12.60;80.20;12.10;98843.00;;;;5113836;28;20194;-77
2022/04/15 02:13:05;;;;;;;0.80;0.80;;;12.60;79.80;11.90;98838.00;;;;5113810;28;20221;-77
2022/04/15 02:15:32;;;;;;;1.60;1.50;;;12.60;79.30;11.90;98841.00;;;;5113868;28;20293;-78
2022/04/15 02:17:59;;;;;;;0.67;0.67;;;12.50;79.60;11.90;98844.00;;;;5095951;28;20202;-77
2022/04/15 02:20:28;;;;;;;0.80;0.80;;;12.50;79.40;11.90;98849.00;;;;5113666;28;20251;-78
2022/04/15 02:22:55;;;;;;;1.10;1.10;;;12.50;79.00;12.00;98849.00;;;;5095915;28;20236;-78
2022/04/15 02:25:21;;;;;;;0.50;0.50;;;12.60;79.00;12.00;98851.00;;;;5116528;28;20289;-78
2022/04/15 02:27:50;;;;;;;0.73;0.73;;;12.60;79.00;12.00;98858.00;;;;5099165;28;20224;-78
2022/04/15 02:30:17;;;;;;;0.80;0.80;;;12.50;78.50;12.00;98853.00;;;;5117524;28;20261;-77
2022/04/15 02:32:47;;;;;;;0.60;0.60;;;12.50;78.40;12.00;98848.00;;;;5117186;28;20692;-78
2022/04/15 02:35:15;;;;;;;0.67;0.67;;;12.50;78.60;11.90;98854.00;;;;5099090;28;20553;-78
2022/04/15 02:37:42;;;;;;;1.07;1.07;;;12.40;78.30;11.90;98860.00;;;;5117020;28;20581;-78
2022/04/15 02:40:10;;;;;;;0.80;0.80;;;12.50;78.90;11.80;98861.00;;;;5116990;28;20240;-77
2022/04/15 02:42:37;;;;;;;1.27;1.27;;;12.40;78.70;11.80;98851.00;;;;5117021;28;20228;-78
2022/04/15 02:45:09;;;;;;;0.70;0.70;;;12.40;78.80;11.80;98858.00;;;;5099052;28;20214;-77
2022/04/15 02:47:36;;;;;;;0.90;0.90;;;12.30;78.90;11.60;98850.00;;;;5116863;28;20251;-75
2022/04/15 02:50:06;;;;;;;0.70;0.70;;;12.30;79.50;11.60;98857.00;;;;5116799;28;20205;-78
2022/04/15 02:52:34;;;;;;;1.50;1.27;;;12.30;78.90;11.60;98860.00;;;;5116987;28;20221;-78
2022/04/15 02:55:01;;;;;;;0.80;0.80;;;12.20;79.20;11.60;98859.00;;;;5116735;28;20194;-77
2022/04/15 02:57:28;;;;;;;1.07;1.07;;;12.20;79.50;11.60;98846.00;;;;5116824;28;20228;-78
2022/04/15 02:59:58;;;;;;;1.03;1.03;;;12.20;80.00;11.50;98855.00;;;;5116644;28;20222;-77
2022/04/15 03:02:27;;;;;;;1.43;1.30;;;12.20;80.30;11.50;98852.00;;;;5116653;28;20206;-77
2022/04/15 03:04:54;;;;;;;1.03;1.03;;;12.10;80.50;11.50;98844.00;;;;5116770;28;20216;-78
2022/04/15 03:07:21;;;;;;;1.60;1.50;;;12.10;80.40;11.60;98841.00;;;;5116419;28;20304;-77
2022/04/15 03:09:48;;;;;;;0.50;0.50;;;12.20;80.10;11.50;98859.00;;;;5116550;28;20649;-78
2022/04/15 03:12:16;;;;;;;0.90;0.90;;;12.10;79.70;11.40;98856.00;;;;5098364;28;20221;-78
2022/04/15 03:14:43;;;;;;;0.80;0.80;;;12.00;79.80;11.50;98853.00;;;;5098505;28;20233;-76
2022/04/15 03:17:10;;;;;;;0.90;0.90;;;12.00;80.60;11.40;98859.00;;;;5098645;28;20204;-78
2022/04/15 03:19:36;;;;;;;0.90;0.90;;;12.00;80.40;11.20;98857.00;;;;5116280;28;20271;-77
2022/04/15 03:22:04;;;;;;;0.70;0.70;;;;;11.20;98853.00;;;;5116359;28;20280;-78
2022/04/15 03:24:32;;;;;;;0.90;0.90;;;11.90;81.20;11.30;98854.00;;;;5116290;28;20664;-77
2022/04/15 03:26:58;;;;;;;0.97;0.97;;;11.90;82.50;11.20;98853.00;;;;5116099;28;20218;-77
2022/04/15 03:29:27;;;;;;;0.90;0.90;;;11.90;82.70;11.40;98850.00;;;;5116370;28;20217;-78
2022/04/15 03:31:56;;;;;;;0.80;0.80;;;11.90;83.70;11.30;98862.00;;;;5098578;28;20239;-77
2022/04/15 03:34:25;;;;;;;0.90;0.90;;;11.90;83.20;11.30;98846.00;;;;5115702;28;20198;-77
2022/04/15 03:36:52;;;;;;;0.70;0.70;;;11.80;84.00;11.30;98847.00;;;;5116110;28;20231;-78
2022/04/15 03:39:19;;;;;;;0.80;0.80;;;;;11.20;98857.00;;;;5115956;28;20249;-78
2022/04/15 03:41:46;;;;;;;0.67;0.67;;;11.80;83.60;11.20;98854.00;;;;5116100;28;20209;-78
2022/04/15 03:44:13;;;;;;;1.43;1.43;;;11.80;84.20;11.30;98861.00;;;;5116177;28;20285;-77
2022/04/15 03:46:40;;;;;;;0.60;0.60;;;11.80;84.10;11.20;98854.00;;;;5116649;28;20302;-78
2022/04/15 03:49:07;;;;;;;0.57;0.57;;;;;11.10;98866.00;;;;5117317;28;20239;-77
2022/04/15 03:51:34;;;;;;;0.90;0.90;;;11.70;82.70;11.10;98858.00;;;;5117439;28;20205;-80
2022/04/15 03:54:01;;;;;;;1.00;1.00;;;11.70;83.60;11.00;98855.00;;;;5118553;28;20198;-78
2022/04/15 03:56:30;;;;;;;0.53;0.53;;;11.60;83.30;11.00;98860.00;;;;5101665;28;20284;-79
2022/04/15 03:58:58;;;;;;;1.97;0.73;;;11.60;83.70;11.00;98839.00;;;;5119708;28;20249;-78
2022/04/15 04:01:27;;;;;;;0.70;0.70;;;11.60;83.80;11.00;98862.00;;;;5101896;28;20240;-78
2022/04/15 04:03:53;;;;;;;0.40;0.40;;;11.60;83.70;10.90;98861.00;;;;5118646;28;20220;-78
2022/04/15 04:06:20;;;;;;;0.90;0.90;;;11.50;83.70;10.80;98856.00;;;;5117103;28;20679;-79
2022/04/15 04:08:49;;;;;;;1.00;1.00;;;11.40;83.60;10.70;98859.00;;;;5099273;28;20688;-78
2022/04/15 04:11:16;;;;;;;0.60;0.60;;;11.40;83.40;10.80;98858.00;;;;5101335;28;20209;-78
2022/04/15 04:13:45;;;;;;;1.10;1.10;;;11.40;83.90;10.70;98861.00;;;;5118588;28;20251;-78
2022/04/15 04:16:14;;;;;;;0.77;0.77;;;11.30;84.20;10.80;98853.00;;;;5118867;28;20225;-77
2022/04/15 04:18:41;;;;;;;1.30;1.23;;;11.30;85.00;10.70;98860.00;;;;5118521;28;20339;-77
2022/04/15 04:21:08;;;;;;;1.70;1.60;;;11.30;85.00;10.60;98848.00;;;;5100993;28;20221;-76
2022/04/15 04:23:36;;;;;;;0.80;0.80;;;11.30;85.10;10.60;98863.00;;;;5118647;28;20322;-77
2022/04/15 04:26:04;;;;;;;1.17;1.03;;;11.20;85.40;10.60;98863.00;;;;5118269;28;20232;-77
2022/04/15 04:28:31;;;;;;;0.60;0.60;;;11.20;85.40;10.50;98851.00;;;;5118455;28;20234;-78
2022/04/15 04:30:57;;;;;;;0.83;0.83;;;11.10;85.40;10.50;98866.00;;;;5100588;28;20720;-78
2022/04/15 04:33:27;;;;;;;1.30;1.30;;;11.10;86.40;10.50;98864.00;;;;5126149;28;20285;-77
2022/04/15 04:35:56;;;;;;;1.07;1.07;;;11.10;87.30;10.40;98874.00;;;;5130719;28;20279;-77
2022/04/15 04:38:22;;;;;;;0.90;0.90;;;11.10;87.50;10.50;98877.00;;;;5116398;28;20654;-77
2022/04/15 04:40:52;;;;;;;0.70;0.70;;;11.10;87.70;10.50;98876.00;;;;5124892;28;20277;-77
2022/04/15 04:43:19;;;;;;;1.40;1.40;;;11.00;87.80;10.30;98885.00;;;;5105868;28;20245;-77
2022/04/15 04:45:46;;;;;;;3.33;1.73;;;11.00;87.90;10.40;98885.00;;;;5119470;28;20248;-77
2022/04/15 04:48:12;;;;;;;0.60;0.60;;;11.00;88.80;10.50;98890.00;;;;5116753;28;20210;-76
2022/04/15 04:50:40;;;;;;;1.20;1.20;;;11.00;88.90;10.40;98889.00;;;;5115869;28;20218;-77
2022/04/15 04:53:08;;;;;;;1.23;1.20;;;11.00;88.90;10.50;98880.00;;;;5115589;28;20732;-77
2022/04/15 04:55:35;;;;;;;0.80;0.80;;;11.00;89.30;10.50;98886.00;;;;5097584;28;20296;-77
2022/04/15 04:58:01;;;;;;;0.60;0.60;;;11.00;89.20;10.50;98895.00;;;;5097440;28;20194;-77
2022/04/15 05:00:28;;;;;;;1.37;1.27;;;11.00;88.80;10.50;98893.00;;;;5114643;28;20201;-77
2022/04/15 05:02:55;;;;;;;0.90;0.90;;;11.10;88.30;10.60;98892.00;;;;5115241;28;20206;-77
2022/04/15 05:05:21;;;;;;;0.70;0.70;;;11.10;88.30;10.50;98894.00;;;;5122674;28;20210;-77
2022/04/15 05:07:48;;;;;;;1.67;1.57;;;11.00;87.90;10.60;98898.00;;;;5121677;28;20507;-77
2022/04/15 05:10:17;;;;;;;0.60;0.60;;;11.10;88.40;10.50;98897.00;;;;5122116;28;20205;-77
2022/04/15 05:12:45;;;;;;;1.40;1.33;;;11.10;88.10;10.60;98901.00;;;;5110779;28;20221;-77
2022/04/15 05:15:12;;;;;;;1.40;1.37;;;11.10;89.10;10.70;98901.00;;;;5117650;28;20194;-77
2022/04/15 05:17:40;;;;;;;2.00;1.13;;;11.10;88.50;10.60;98913.00;;;;5114909;28;20205;-78
2022/04/15 05:20:08;;;;;;;0.73;0.73;;;11.20;88.50;10.60;98918.00;;;;5114396;28;20667;-77
2022/04/15 05:22:35;;;;;;;0.73;0.73;;;11.20;89.00;10.60;98912.00;;;;5113601;28;20193;-76
2022/04/15 05:25:02;;;;;;;1.17;1.17;;;11.20;89.60;10.60;98914.00;;;;5096716;28;20608;-78
2022/04/15 05:27:29;;;;;;;0.70;0.70;;;11.20;89.60;10.60;98920.00;;;;5114240;28;20320;-77
2022/04/15 05:29:55;;;;;;;0.90;0.90;;;11.20;89.60;10.70;98924.00;;;;5114643;28;20198;-77
2022/04/15 05:32:22;;;;;;;1.03;1.03;;;11.20;90.50;10.90;98925.00;;;;5114542;28;20213;-77
2022/04/15 05:34:49;;;;;;;4.33;1.30;;;11.30;91.00;10.90;98923.00;;;;5114343;28;20209;-78
2022/04/15 05:37:17;;;;;;;2.27;2.07;;;11.40;91.50;10.90;98926.00;;;;5096404;28;20216;-77
2022/04/15 05:39:46;;;;;;;0.93;0.93;;;11.40;91.20;10.90;98930.00;;;;5096174;28;20249;-78
2022/04/15 05:42:16;;;;;;;0.60;0.60;;;11.50;91.70;11.00;98931.00;;;;5114311;28;20193;-77
2022/04/15 05:44:43;;;;;;;1.47;1.37;;;11.50;92.20;11.10;98919.00;;;;5114279;28;20261;-77
2022/04/15 05:47:09;;;;;;;0.80;0.80;;;11.60;92.00;11.20;98924.00;;;;5114098;28;20190;-77
2022/04/15 05:49:36;;;;;;;1.37;1.30;;;11.60;91.50;11.20;98939.00;;;;5096176;28;20616;-77
2022/04/15 05:52:04;;;;;;;1.07;1.07;;;11.70;91.40;11.30;98928.00;;;;5114083;28;20731;-77
2022/04/15 05:54:30;;;;;;;0.67;0.67;;;11.80;91.20;11.40;98944.00;;;;5114014;28;20595;-77
2022/04/15 05:56:57;;;;;;;0.83;0.83;;;11.90;91.40;11.50;98944.00;;;;5114065;28;20190;-78
2022/04/15 05:59:26;;;;;;;1.00;1.00;;;12.00;91.30;11.50;98947.00;;;;5116897;28;20663;-77
2022/04/15 06:01:53;;;;;;;1.07;1.07;;;12.10;91.10;11.70;98950.00;;;;5117603;28;20289;-78
2022/04/15 06:04:19;;;;;;;0.70;0.70;;;12.20;90.80;11.70;98950.00;;;;5117957;28;20230;-77
2022/04/15 06:06:47;;;;;;;0.77;0.77;;;12.20;90.20;11.80;98951.00;;;;5117764;28;20284;-78
2022/04/15 06:09:16;;;;;;;1.00;1.00;;;12.30;89.80;11.80;98947.00;;;;5099595;28;20221;-77
2022/04/15 06:11:42;;;;;;;0.90;0.90;;;12.40;89.20;11.90;98945.00;;;;5117387;28;20260;-78
2022/04/15 06:14:09;;;;;;;2.73;1.27;;;12.40;88.90;12.00;98950.00;;;;5099800;28;20209;-78
2022/04/15 06:16:39;;;;;;;1.87;0.93;;;12.50;88.80;12.10;98955.00;;;;5099551;28;20205;-78
2022/04/15 06:19:05;;;;;;;0.90;0.90;;;12.60;88.90;12.20;98932.00;;;;5117241;28;20777;-78
2022/04/15 06:21:32;;;;;;;0.40;0.40;;;12.60;88.90;12.20;98941.00;;;;5117277;28;20206;-77
2022/04/15 06:23:59;;;;;;;1.80;1.70;;;12.70;88.90;12.30;98947.00;;;;5117258;28;20236;-78
2022/04/15 06:26:28;;;;;;;2.77;2.23;;;12.80;88.50;12.30;98948.00;;;;5117179;28;20214;-77
2022/04/15 06:28:54;;;;;;;1.13;1.13;;;12.90;88.30;12.40;98959.00;;;;5117194;28;20680;-78
2022/04/15 06:31:21;;;;;;;1.77;1.67;;;12.90;87.90;12.50;98954.00;;;;5117266;28;20217;-77
2022/04/15 06:33:50;;;;;;;0.60;0.60;;;13.00;87.70;12.60;98954.00;;;;5117289;28;20205;-77
2022/04/15 06:36:17;;;;;;;1.87;1.77;;;13.10;87.40;12.60;98959.00;;;;5117086;28;20190;-78
2022/04/15 06:38:43;;;;;;;1.83;1.73;;;13.20;87.20;12.70;98958.00;;;;5117064;28;20217;-77
2022/04/15 06:41:10;;;;;;;1.70;1.60;;;13.30;86.90;12.90;98961.00;;;;5116984;28;20276;-77
2022/04/15 06:43:36;;;;;;;7.03;2.97;;;13.40;86.10;13.00;98957.00;;;;5117010;28;20675;-77
2022/04/15 06:46:03;;;;;;;3.37;2.97;;;13.50;85.40;13.00;98955.00;;;;5116942;28;20246;-77
2022/04/15 06:48:29;;;;;;;2.20;2.03;;;13.60;85.10;13.20;98964.00;;;;5116966;28;20298;-78
2022/04/15 06:50:57;;;;;;;1.70;1.60;;;13.70;84.80;13.30;98962.00;;;;5116774;28;20218;-78
2022/04/15 06:53:24;;;;;;;1.27;1.23;;;13.80;83.70;13.30;98960.00;;;;5116842;28;20186;-77
2022/04/15 06:55:50;;;;;;;1.07;1.07;;;13.90;83.30;13.50;98960.00;;;;5116796;28;20208;-77
2022/04/15 06:58:17;;;;;;;1.63;1.57;;;14.00;82.10;13.60;98957.00;;;;5098359;28;20866;-77
2022/04/15 07:00:47;;;;;;;1.83;1.73;;;14.10;81.60;13.60;98964.00;;;;5116623;28;20254;-77
2022/04/15 07:03:15;;;;;;;1.77;1.67;;;14.20;80.40;13.70;98967.00;;;;5116664;28;20194;-78
2022/04/15 07:05:43;;;;;;;2.33;2.13;;;14.30;80.00;13.80;98940.00;;;;5115811;28;20221;-77
2022/04/15 07:08:11;;;;;;;1.33;1.23;;;14.30;78.70;14.10;98963.00;;;;5116686;28;20261;-76
2022/04/15 07:10:38;;;;;;;1.17;1.17;;;14.40;78.10;14.00;98959.00;;;;5115610;28;20221;-76
2022/04/15 07:13:06;;;;;;;2.77;2.57;;;14.60;76.70;14.20;98950.00;;;;5116617;28;20252;-77
2022/04/15 07:15:34;;;;;;;2.03;1.93;;;14.60;76.40;14.30;98962.00;;;;5116545;28;20251;-77
2022/04/15 07:18:02;;;;;;;3.90;2.50;;;14.80;75.40;14.50;98964.00;;;;5116380;28;20629;-77
2022/04/15 07:20:29;;;;;;;2.90;2.47;;;14.90;74.20;14.70;98966.00;;;;5116473;28;20233;-77
2022/04/15 07:22:56;;;;;;;4.83;1.37;;;15.10;71.50;14.60;98969.00;;;;5118936;28;20194;-76
2022/04/15 07:25:24;;;;;;;1.93;1.83;;;15.00;71.10;14.60;98946.00;;;;5116287;28;20194;-76
2022/04/15 07:27:50;;;;;;;0.80;0.80;;;15.10;70.30;14.80;98968.00;;;;5116610;28;20305;-77
2022/04/15 07:30:17;;;;;;;3.07;2.00;;;15.20;69.90;14.80;98962.00;;;;5116256;28;20217;-77
2022/04/15 07:32:44;;;;;;;1.67;1.57;;;15.30;67.90;14.90;98968.00;;;;5098107;28;20226;-75
2022/04/15 07:35:11;;;;;;;2.83;2.63;;;15.30;68.40;14.80;98971.00;;;;5116164;28;20354;-77
2022/04/15 07:37:37;;;;;;;1.17;1.17;;;15.30;67.70;14.90;98968.00;;;;5115856;28;20213;-76
2022/04/15 07:40:06;;;;;;;3.20;2.90;;;15.40;67.40;14.90;98971.00;;;;5116121;28;20237;-76
2022/04/15 07:42:33;;;;;;;2.03;1.93;;;15.40;67.50;15.00;98979.00;;;;5098002;28;20285;-76
2022/04/15 07:44:59;;;;;;;1.70;1.60;;;15.50;66.80;15.20;98974.00;;;;5115706;28;20236;-76
2022/04/15 07:47:26;;;;;;;2.43;2.20;;;15.70;65.90;15.50;98975.00;;;;5115989;28;20198;-77
2022/04/15 07:49:53;;;;;;;1.90;1.80;;;15.80;65.10;15.60;98971.00;;;;5115918;28;20205;-77
2022/04/15 07:52:22;;;;;;;1.67;1.57;;;16.00;64.20;15.80;98971.00;;;;5116084;28;20202;-77
2022/04/15 07:54:50;;;;;;;1.90;1.80;;;16.10;62.30;15.80;98969.00;;;;5115764;28;20225;-76
2022/04/15 07:57:17;;;;;;;1.47;1.43;;;16.20;61.80;15.90;98973.00;;;;5115915;28;20198;-75
2022/04/15 07:59:44;;;;;;;1.53;1.47;;;16.30;61.40;15.90;98973.00;;;;5115721;28;20720;-75
2022/04/15 08:02:14;;;;;;;1.33;1.33;;;16.30;59.80;15.90;98968.00;;;;5115889;28;20198;-76
2022/04/15 08:04:42;;;;;;;2.23;2.03;;;16.40;60.50;16.00;98964.00;;;;5115766;28;20524;-76
2022/04/15 08:07:09;;;;;;;1.43;1.43;;;16.50;61.00;16.10;98967.00;;;;5097631;28;20723;-76
2022/04/15 08:09:39;;;;;;;2.33;2.20;;;16.60;60.80;16.20;98968.00;;;;5115904;28;20225;-76
2022/04/15 08:12:08;;;;;;;1.70;1.60;;;16.60;60.10;16.40;98978.00;;;;5115934;28;20648;-76
2022/04/15 08:14:35;;;;;;;2.10;2.00;;;16.70;58.40;16.60;98977.00;;;;5116558;28;20194;-78
2022/04/15 08:17:05;;;;;;;2.93;2.73;;;16.90;58.00;16.70;98976.00;;;;5117978;28;20217;-75
2022/04/15 08:19:32;;;;;;;1.90;1.77;;;17.00;58.20;16.70;98975.00;;;;5115718;28;20225;-76
2022/04/15 08:21:58;;;;;;;3.03;2.87;;;17.10;58.00;17.00;98981.00;;;;5115402;28;20217;-75
2022/04/15 08:24:25;;;;;;;1.53;1.50;;;17.30;54.10;17.00;98976.00;;;;5115527;28;20520;-75
2022/04/15 08:26:56;;;;;;;3.50;2.50;;;17.30;55.00;16.90;98980.00;;;;5115276;28;20221;-76
2022/04/15 08:29:23;;;;;;;3.37;2.73;;;17.40;54.70;16.60;98988.00;;;;5115227;28;20618;-75
2022/04/15 08:31:49;;;;;;;2.50;1.83;;;17.30;54.10;16.70;98984.00;;;;5097466;28;20324;-75
2022/04/15 08:34:17;;;;;;;1.00;1.00;;;17.20;55.20;16.70;98984.00;;;;5115350;28;20671;-77
2022/04/15 08:36:43;;;;;;;2.20;2.10;;;17.20;54.70;16.90;98987.00;;;;5115786;28;20313;-76
2022/04/15 08:39:10;;;;;;;1.63;1.53;;;17.30;54.80;17.00;98994.00;;;;5118828;28;20563;-75
2022/04/15 08:41:42;;;;;;;1.90;1.80;;;17.30;54.80;17.20;98995.00;;;;5121541;28;20209;-77
2022/04/15 08:44:09;;;;;;;1.67;1.63;;;17.60;53.70;17.20;98994.00;;;;5118453;28;20588;-78
2022/04/15 08:46:38;;;;;;;1.10;1.10;;;17.60;53.90;17.40;98995.00;;;;5115117;28;20289;-77
2022/04/15 08:49:07;;;;;;;2.40;2.20;;;17.70;52.90;17.40;98993.00;;;;5115077;28;20795;-77
2022/04/15 08:51:35;;;;;;;2.07;1.97;;;17.70;51.60;17.50;98992.00;;;;5114937;28;20706;-76
2022/04/15 08:54:06;;;;;;;1.77;1.67;;;17.80;51.70;17.60;99003.00;;;;5096961;28;20220;-76
2022/04/15 08:56:33;;;;;;;2.23;2.13;;;17.90;49.50;17.70;99005.00;;;;5114873;28;20201;-76
2022/04/15 08:58:59;;;;;;;1.83;1.73;;;18.10;48.10;17.70;99005.00;;;;5114773;28;20249;-75
2022/04/15 09:01:26;;;;;;;6.27;3.43;;;18.00;49.10;17.70;99008.00;;;;5114847;28;20229;-75
2022/04/15 09:03:52;;;;;;;4.17;2.67;;;18.10;49.60;17.80;99000.00;;;;5114639;28;20678;-76
2022/04/15 09:06:19;;;;;;;1.90;1.80;;;18.20;48.50;17.90;99007.00;;;;5114702;28;20531;-77
2022/04/15 09:09:06;;;;;;;0.97;0.97;;;18.30;47.90;18.00;99009.00;;;;5114452;28;20229;-78
2022/04/15 09:11:35;;;;;;;1.80;1.70;;;18.30;49.40;18.10;99011.00;;;;5114713;28;20644;-77
2022/04/15 09:14:07;;;;;;;1.93;1.83;;;18.40;48.50;18.30;99006.00;;;;5114721;28;20217;-77
2022/04/15 09:16:38;;;;;;;2.17;2.03;;;18.60;49.20;18.40;98980.00;;;;5114716;28;20197;-74
2022/04/15 09:19:06;;;;;;;1.30;1.30;;;18.80;47.20;18.50;99009.00;;;;5114546;28;20701;-77
2022/04/15 09:21:34;;;;;;;3.03;2.83;;;18.80;49.00;18.70;99011.00;;;;5096615;28;20663;-77
2022/04/15 09:24:04;;;;;;;2.50;2.30;;;19.00;48.60;19.00;99009.00;;;;5096289;28;20554;-76
2022/04/15 09:26:31;;;;;;;2.20;1.37;;;19.20;46.20;19.00;99007.00;;;;5114426;28;20194;-77
2022/04/15 09:28:58;;;;;;;1.90;1.77;;;19.30;46.50;19.20;99014.00;;;;5114226;28;20225;-76
2022/04/15 09:31:25;;;;;;;1.97;1.80;;;19.40;47.20;19.20;99019.00;;;;5114326;28;20193;-77
2022/04/15 09:33:54;;;;;;;1.90;1.80;;;19.50;46.10;19.30;99012.00;;;;5113631;28;20218;-75
2022/04/15 09:36:30;;;;;;;2.87;2.63;;;19.60;45.10;19.20;99014.00;;;;5114363;28;20198;-74
2022/04/15 09:39:10;;;;;;;2.47;2.23;;;19.60;45.10;19.30;99010.00;;;;5114159;28;20229;-76
2022/04/15 09:41:38;;;;;;;1.27;1.27;;;19.70;45.40;19.40;99024.00;;;;5114180;28;20252;-76
2022/04/15 09:44:05;;;;;;;2.57;2.37;;;19.70;45.40;19.40;99018.00;;;;5114218;28;20229;-77
2022/04/15 09:46:32;;;;;;;1.50;1.40;;;19.70;43.70;19.40;99011.00;;;;5114268;28;20262;-76
2022/04/15 09:49:07;;;;;;;1.93;1.77;;;19.70;44.20;19.50;99010.00;;;;5096063;28;20209;-77
2022/04/15 09:51:37;;;;;;;2.27;2.17;;;19.80;44.40;19.60;99015.00;;;;5113952;28;20205;-76
2022/04/15 09:54:07;;;;;;;2.70;2.30;;;19.90;45.90;19.50;98991.00;;;;5114155;28;20186;-78
2022/04/15 09:56:35;;;;;;;4.10;2.27;;;19.90;42.40;19.50;99017.00;;;;5114114;28;20609;-77
2022/04/15 09:59:08;;;;;;;2.67;2.20;;;19.90;43.00;19.70;99009.00;;;;5113978;28;20515;-78
2022/04/15 10:01:45;;;;;;;4.13;2.83;;;20.00;44.00;20.00;99004.00;;;;5114006;28;20225;-77
2022/04/15 10:04:13;;;;;;;2.37;2.00;;;20.20;41.60;20.30;98997.00;;;;5095970;28;20566;-77
2022/04/15 10:06:42;;;;;;;2.17;2.07;;;20.40;40.60;20.40;99012.00;;;;5096246;28;20261;-78
2022/04/15 10:09:14;;;;;;;2.40;2.20;;;20.60;40.90;20.40;99008.00;;;;5113842;28;20282;-77
2022/04/15 10:11:43;;;;;;;2.33;2.23;;;20.60;39.40;20.40;99003.00;;;;5096125;28;20189;-75
2022/04/15 10:14:14;;;;;;;1.80;1.70;;;20.70;40.20;20.40;99009.00;;;;5113949;28;20198;-76
2022/04/15 10:16:43;;;;;;;1.47;1.37;;;20.70;39.20;20.30;99004.00;;;;5096014;28;20201;-77
2022/04/15 10:19:11;;;;;;;1.57;1.47;;;20.70;39.40;20.20;99007.00;;;;5113637;28;20259;-76
2022/04/15 10:21:45;;;;;;;1.87;1.77;;;20.60;39.80;20.50;99008.00;;;;5113697;28;20275;-77
2022/04/15 10:24:14;;;;;;;2.83;2.63;;;20.70;40.50;20.60;99007.00;;;;5113606;28;20245;-77
2022/04/15 10:26:43;;;;;;;1.40;1.30;;;20.90;38.40;20.90;99011.00;;;;5113773;28;20517;-77
2022/04/15 10:29:14;;;;;;;1.50;1.40;;;21.10;38.40;20.80;98996.00;;;;5113451;28;20225;-77
2022/04/15 10:31:43;;;;;;;1.47;1.37;;;21.20;38.60;21.10;99003.00;;;;5113619;28;20229;-76
2022/04/15 10:34:12;;;;;;;1.13;1.13;;;21.20;37.70;21.10;99004.00;;;;5113528;28;20190;-77
2022/04/15 10:36:45;;;;;;;1.77;1.67;;;21.30;38.70;21.20;98993.00;;;;5113478;28;20824;-77
2022/04/15 10:39:14;;;;;;;2.37;2.07;;;21.40;37.10;21.20;98991.00;;;;5113589;28;20218;-77
2022/04/15 10:41:57;;;;;;;2.20;1.77;;;21.50;37.90;21.30;98973.00;;;;5113381;28;20198;-76
2022/04/15 10:44:29;;;;;;;1.13;1.13;;;21.60;39.20;21.10;98992.00;;;;5113527;28;20260;-76
2022/04/15 10:47:04;;;;;;;2.43;1.73;;;21.50;37.20;21.20;98991.00;;;;5098780;28;20530;-75
2022/04/15 10:49:34;;;;;;;2.55;2.35;;;21.50;36.00;20.90;98999.00;;;;5116681;28;20221;-75
2022/04/15 10:52:18;;;;;;;1.63;1.53;;;21.30;36.80;20.80;98994.00;;;;5098841;28;20305;-75
2022/04/15 10:54:46;;;;;;;1.55;1.48;;;21.20;36.40;20.60;99006.00;;;;5116979;28;20202;-76
2022/04/15 10:57:17;;;;;;;1.33;1.33;;;21.10;36.50;20.40;98990.00;;;;5098682;28;20649;-76